Chamberino, New Mexico
Current Conditions -  °F | °C
As of 10:55 AM on Thursday 30 Oct 2014 (Local Time) from KLRU Reporting Station
Clear Clear  
Wind Chill: 69°   Ceiling: Unl
Heat Index: 69°   Visibility: 10mi
Dew Point: 36°   Wind: 5mph
Humidity: 30%   Direction: 70°ENE
Pressure: 30.28"   Gusts: NA
Location:  32.05°N, 106.68°W
Report Text: KLRU 301655Z AUTO 07004KT 10SM CLR 20/02 A3028 RMK AO2 T02040024 PWINO
Loading
Personal Weather Stations






























Interactive Weather Map
Tropical Storm Tracking
New forecast layout! Learn more

10-Day Weather Forecast

Advertisements
Track Severe Weather on mobile